METAR Data
IDs: Format: Raw Decoded Include TAF

Data at: 1507 UTC 21 May 2019

KAWG 211455Z AUTO 09018KT 10SM BKN050 09/09 A2997 RMK AO2
KAWG 211435Z AUTO 09016KT 10SM FEW015 SCT035 BKN050 09/09 A2999 RMK AO2
KAWG 211415Z AUTO 09013KT 10SM BKN014 BKN019 OVC034 08/08 A3000 RMK AO2
KAWG 211355Z AUTO 09014KT 10SM BKN014 OVC032 08/08 A3000 RMK AO2
KAWG 211335Z AUTO 08013G22KT 9SM BKN012 BKN030 BKN050 08/08 A2999 RMK AO2
KAWG 211315Z AUTO 09015G23KT 9SM BKN013 BKN050 08/08 A2997 RMK AO2
KAWG 211255Z AUTO 09016G22KT 9SM BKN015 BKN050 08/08 A2998 RMK AO2
KAWG 211235Z AUTO 09017G22KT 9SM OVC016 08/08 A2998 RMK AO2
KAWG 211215Z AUTO 09017KT 10SM BKN014 OVC019 08/08 A2999 RMK AO2
KAWG 211155Z AUTO 10015G23KT 10SM OVC014 08/08 A3002 RMK AO2
KAWG 211135Z AUTO 10017KT 10SM OVC014 08/08 A3002 RMK AO2
KAWG 211115Z AUTO 09015G20KT 10SM OVC013 08/08 A3002 RMK AO2
KAWG 211055Z AUTO 09015G23KT 10SM OVC014 08/08 A3000 RMK AO2 P0001
KAWG 211035Z AUTO 09018KT 9SM BKN013 OVC017 08/08 A2999 RMK AO2
KAWG 211015Z AUTO 10016G22KT 6SM BR BKN013 OVC017 08/08 A3001 RMK AO2
KAWG 210955Z AUTO 11018G24KT 5SM BR SCT015 BKN029 OVC036 08/08 A3003 RMK AO2 P0003
KAWG 210935Z AUTO 11021KT 6SM BR BKN012 BKN017 OVC038 08/08 A3003 RMK AO2
KAWG 210915Z AUTO 11020G28KT 6SM BR OVC012 08/08 A3002 RMK AO2
KAWG 210855Z AUTO 11018G26KT 8SM BKN014 OVC047 09/09 A3001 RMK AO2 P0002
KAWG 210835Z AUTO 10017G23KT 7SM BKN014 BKN048 OVC060 09/09 A3000 RMK AO2
KAWG 210815Z AUTO 10020KT 4SM BR SCT015 SCT028 BKN043 09/09 A3000 RMK AO2
KAWG 210755Z AUTO 10014G20KT 4SM -RA SCT016 SCT043 OVC050 09/09 A3001 RMK AO2 P0002
KAWG 210735Z AUTO 10016G24KT 10SM SCT014 OVC060 09/09 A3001 RMK AO2
KAWG 210655Z AUTO 11017KT 10SM OVC015 09/09 A3002 RMK AO2
KAWG 210635Z AUTO 10015G20KT 10SM SCT016 OVC070 10/10 A3003 RMK AO2
KAWG 210615Z AUTO 11014G20KT 10SM FEW013 OVC075 09/09 A3004 RMK AO2
KAWG 210555Z AUTO 10014G23KT 10SM SCT013 SCT080 OVC095 09/09 A3003 RMK AO2
KAWG 210535Z AUTO 10015G20KT 10SM OVC100 09/09 A3003 RMK AO2
KAWG 210515Z AUTO 10015G20KT 10SM OVC100 09/09 A3004 RMK AO2
KAWG 210455Z AUTO 11015KT 10SM OVC095 09/09 A3005 RMK AO2 P0001
KAWG 210435Z AUTO 11014KT 10SM FEW060 FEW070 OVC090 09/09 A3006 RMK AO2
KAWG 210415Z AUTO 10013KT 9SM FEW055 SCT075 BKN095 10/10 A3007 RMK AO2
KAWG 210355Z AUTO 09012KT 7SM FEW060 BKN075 BKN090 10/10 A3009 RMK AO2
KAWG 210335Z AUTO 12012KT 10SM BKN075 OVC085 10/10 A3011 RMK AO2
KAWG 210315Z AUTO 12011KT 10SM FEW065 BKN085 OVC100 10/10 A3012 RMK AO2
KAWG 210255Z AUTO 12007KT 8SM -RA FEW049 SCT065 BKN085 10/10 A3012 RMK AO2 P0006
KAWG 210235Z AUTO 13006KT 5SM -RA FEW035 SCT047 BKN090 10/10 A3013 RMK AO2
KAWG 210215Z AUTO 14004KT 5SM -RA FEW031 SCT042 BKN065 10/10 A3013 RMK AO2
KAWG 210155Z AUTO 14007KT 3SM -RA FEW042 SCT055 BKN090 10/10 A3013 RMK AO2 P0009
KAWG 210135Z AUTO 13006KT 6SM -RA FEW060 SCT070 BKN090 11/11 A3013 RMK AO2
KAWG 210115Z AUTO 13006KT 8SM BKN065 BKN080 BKN095 11/11 A3012 RMK AO2
KAWG 210055Z AUTO 12006KT 10SM SCT065 BKN075 BKN095 12/11 A3012 RMK AO2
KAWG 210035Z AUTO 11006KT 10SM CLR 12/10 A3012 RMK AO2
KAWG 210015Z AUTO 08008KT 10SM CLR 12/09 A3010 RMK AO2
KAWG 202355Z AUTO 09008KT 10SM CLR 13/08 A3010 RMK AO2
KAWG 202335Z AUTO 08007KT 10SM CLR 13/08 A3010 RMK AO2
KAWG 202315Z AUTO 07009KT 10SM CLR 13/08 A3009 RMK AO2
KAWG 202255Z AUTO 07011KT 10SM CLR 13/09 A3009 RMK AO2
KAWG 202235Z AUTO 06010KT 10SM CLR 13/08 A3012 RMK AO2
KAWG 202215Z AUTO 07009KT 10SM CLR 13/08 A3013 RMK AO2
KAWG 202155Z AUTO 05007KT 10SM CLR 13/08 A3014 RMK AO2
KAWG 202135Z AUTO 05007KT 10SM FEW031 13/08 A3014 RMK AO2
KAWG 202115Z AUTO 07007KT 10SM CLR 13/08 A3014 RMK AO2
KAWG 202055Z AUTO 08005KT 10SM SCT031 13/08 A3014 RMK AO2
KAWG 202035Z AUTO 09008KT 10SM 13/08 A3014 RMK AO2
KAWG 202015Z AUTO 09006KT 10SM SCT035 13/08 A3015 RMK AO2
KAWG 201955Z AUTO 00000KT 10SM FEW030 BKN035 12/07 A3016 RMK AO2
KAWG 201935Z AUTO 09004KT 10SM 12/08 A3016 RMK AO2
KAWG 201915Z AUTO 04005KT 10SM 11/07 A3016 RMK AO2
KAWG 201855Z AUTO 02006KT 10SM BKN027 OVC032 11/10 A3014 RMK AO2
KAWG 201835Z AUTO 04005KT 10SM 11/08 A3015 RMK AO2
KAWG 201815Z AUTO 02007KT 10SM BKN024 OVC029 10/08 A3016 RMK AO2
KAWG 201755Z AUTO 01009KT 330V070 10SM OVC027 11/09 A3015 RMK AO2
KAWG 201735Z AUTO 03008KT 10SM OVC026 10/08 A3015 RMK AO2
KAWG 201715Z AUTO 36007KT 10SM 10/08 A3017 RMK AO2
KAWG 201655Z AUTO 36008KT 10SM 09/08 A3018 RMK AO2
KAWG 201635Z AUTO 02009KT 10SM OVC023 09/08 A3017 RMK AO2
KAWG 201615Z AUTO 35005G11KT 10SM OVC020 09/08 A3017 RMK AO2
KAWG 201555Z AUTO 02006G13KT 10SM OVC021 09/08 A3016 RMK AO2
KAWG 201535Z AUTO 01011KT 10SM BKN023 OVC028 08/08 A3017 RMK AO2
KAWG 201515Z AUTO 35010KT 10SM 08/07 A3017 RMK AO2
KAWG 201455Z AUTO 36008G13KT 10SM 08/07 A3017 RMK AO2
KAWG 201435Z AUTO 34009G14KT 10SM 08/07 A3015 RMK AO2
KAWG 201415Z AUTO 35011G16KT 10SM 07/07 A3014 RMK AO2
KAWG 201355Z AUTO 35011G17KT 10SM 07/07 A3013 RMK AO2
KAWG 201335Z AUTO 36013KT 10SM 07/06 A3011 RMK AO2
KAWG 201315Z AUTO 36013G19KT 10SM 06/06 A3010 RMK AO2
KAWG 201255Z AUTO 35012KT 10SM 06/06 A3011 RMK AO2
KAWG 201235Z AUTO 35012KT 10SM 06/06 A3010 RMK AO2
KAWG 201215Z AUTO 35008G18KT 10SM 06/06 A3009 RMK AO2
KAWG 201155Z AUTO 33013G21KT 10SM OVC018 06/06 A3009 RMK AO2
KAWG 201135Z AUTO 33014KT 10SM OVC017 06/06 A3008 RMK AO2
KAWG 201115Z AUTO 33013KT 10SM OVC017 05/05 A3007 RMK AO2
KAWG 201055Z AUTO 33011G16KT 10SM OVC018 05/05 A3006 RMK AO2
KAWG 201035Z AUTO 33013G20KT 10SM OVC018 05/05 A3007 RMK AO2
KAWG 201015Z AUTO 33015KT 10SM OVC019 06/06 A3006 RMK AO2
KAWG 200955Z AUTO 32014G19KT 10SM OVC017 06/06 A3005 RMK AO2
KAWG 200935Z AUTO 32013KT 10SM OVC018 06/06 A3004 RMK AO2
KAWG 200915Z AUTO 33014KT 10SM OVC017 07/07 A3003 RMK AO2
KAWG 200855Z AUTO 33011KT 10SM OVC018 07/07 A3003 RMK AO2
KAWG 200835Z AUTO 33014KT 10SM BKN017 OVC022 07/07 A3001 RMK AO2
KAWG 200815Z AUTO 33012KT 10SM BKN019 OVC038 08/08 A3001 RMK AO2
KAWG 200755Z AUTO 32015KT 10SM OVC020 08/08 A3000 RMK AO2
KAWG 200735Z AUTO 32012G19KT 10SM BKN017 BKN021 OVC039 08/08 A3000 RMK AO2
KAWG 200715Z AUTO 32014KT 10SM FEW013 BKN019 OVC027 09/09 A2999 RMK AO2
KAWG 200655Z AUTO 32012G19KT 10SM BKN015 OVC027 09/09 A2999 RMK AO2
KAWG 200635Z AUTO 30011KT 10SM SCT027 09/09 A2998 RMK AO2
KAWG 200615Z AUTO 29010G15KT 10SM CLR 09/09 A2998 RMK AO2
KAWG 200555Z AUTO 30009G16KT 10SM FEW026 10/10 A2997 RMK AO2
KAWG 200535Z AUTO 30012G17KT 10SM FEW022 SCT026 BKN043 10/10 A2997 RMK AO2
KAWG 200515Z AUTO 29010KT 10SM FEW026 SCT031 BKN041 10/10 A2996 RMK AO2
KAWG 200455Z AUTO 30012G18KT 10SM FEW013 BKN025 BKN035 10/10 A2996 RMK AO2
KAWG 200435Z AUTO 30010G18KT 8SM SCT015 OVC024 10/10 A2996 RMK AO2
KAWG 200415Z AUTO 30012G18KT 10SM BKN015 BKN029 OVC047 11/11 A2995 RMK AO2
KAWG 200355Z AUTO 28010G17KT 10SM FEW028 BKN040 OVC047 11/11 A2993 RMK AO2
KAWG 200335Z AUTO 28013KT 10SM FEW018 SCT023 OVC039 11/11 A2992 RMK AO2
KAWG 200315Z AUTO 30015KT 8SM BKN023 BKN032 OVC043 11/11 A2993 RMK AO2